createdAt,value
2018-09-12T00:01:07.087Z,3.27
2018-09-12T00:03:35.561Z,3.63
2018-09-12T00:06:03.111Z,3.87
2018-09-12T00:08:30.624Z,4.60
2018-09-12T00:10:58.435Z,3.97
2018-09-12T00:13:26.336Z,3.80
2018-09-12T00:15:53.827Z,3.37
2018-09-12T00:18:21.779Z,3.70
2018-09-12T00:20:49.306Z,3.63
2018-09-12T00:23:17.351Z,4.07
2018-09-12T00:25:45.052Z,3.50
2018-09-12T00:28:12.594Z,4.50
2018-09-12T00:30:40.744Z,3.80
2018-09-12T00:33:08.916Z,3.90
2018-09-12T00:35:38.241Z,3.73
2018-09-12T00:38:06.676Z,4.13
2018-09-12T00:40:34.229Z,4.70
2018-09-12T00:43:01.848Z,6.80
2018-09-12T00:45:29.716Z,5.97
2018-09-12T00:47:57.217Z,6.30
2018-09-12T00:50:25.248Z,5.83
2018-09-12T00:52:53.218Z,5.60
2018-09-12T00:55:21.288Z,5.03
2018-09-12T00:57:48.784Z,5.83
2018-09-12T01:00:16.312Z,3.67
2018-09-12T01:02:44.109Z,6.43
2018-09-12T01:05:11.638Z,5.10
2018-09-12T01:07:39.179Z,5.53
2018-09-12T01:10:06.771Z,6.00
2018-09-12T01:12:34.791Z,5.83
2018-09-12T01:15:04.037Z,5.70
2018-09-12T01:17:31.968Z,5.63
2018-09-12T01:19:59.587Z,6.00
2018-09-12T01:22:27.424Z,5.70
2018-09-12T01:24:54.939Z,5.80
2018-09-12T01:27:22.547Z,6.23
2018-09-12T01:29:50.081Z,6.17
2018-09-12T01:32:18.099Z,5.60
2018-09-12T01:34:46.109Z,4.90
2018-09-12T01:37:13.632Z,5.77
2018-09-12T01:39:41.141Z,5.83
2018-09-12T01:42:09.372Z,5.50
2018-09-12T01:44:38.216Z,5.40
2018-09-12T01:47:06.715Z,5.03
2018-09-12T01:49:34.221Z,4.40
2018-09-12T01:52:01.712Z,4.90
2018-09-12T01:54:29.234Z,5.93
2018-09-12T01:56:56.788Z,5.23
2018-09-12T01:59:24.419Z,4.97
2018-09-12T02:01:51.990Z,5.00
2018-09-12T02:04:20.023Z,5.10
2018-09-12T02:06:48.179Z,4.37
2018-09-12T02:09:17.061Z,4.23
2018-09-12T02:11:45.294Z,5.43
2018-09-12T02:14:12.807Z,5.87
2018-09-12T02:16:40.983Z,5.97
2018-09-12T02:19:08.517Z,5.80
2018-09-12T02:21:36.061Z,6.20
2018-09-12T02:24:03.600Z,5.13
2018-09-12T02:26:31.244Z,5.57
2018-09-12T02:28:58.828Z,5.67
2018-09-12T02:31:26.728Z,4.83
2018-09-12T02:33:54.627Z,5.07
2018-09-12T02:36:27.885Z,5.00
2018-09-12T02:38:56.619Z,5.40
2018-09-12T02:41:24.399Z,5.10
2018-09-12T02:43:52.464Z,5.43
2018-09-12T02:46:20.613Z,5.60
2018-09-12T02:48:48.419Z,5.60
2018-09-12T02:51:15.961Z,5.10
2018-09-12T02:53:44.496Z,5.47
2018-09-12T02:56:12.064Z,5.60
2018-09-12T02:58:39.579Z,5.53
2018-09-12T03:01:07.183Z,5.17
2018-09-12T03:03:35.219Z,5.40
2018-09-12T03:06:02.744Z,5.23
2018-09-12T03:08:30.847Z,6.00
2018-09-12T03:10:58.795Z,6.17
2018-09-12T03:13:26.349Z,6.30
2018-09-12T03:15:53.962Z,5.13
2018-09-12T03:18:21.893Z,6.23
2018-09-12T03:20:49.558Z,5.17
2018-09-12T03:23:16.977Z,5.13
2018-09-12T03:25:44.573Z,5.73
2018-09-12T03:28:12.108Z,5.50
2018-09-12T03:30:40.172Z,5.73
2018-09-12T03:33:07.984Z,5.43
2018-09-12T03:35:36.758Z,5.97
2018-09-12T03:38:04.421Z,5.40
2018-09-12T03:40:32.365Z,5.80
2018-09-12T03:43:00.204Z,5.03
2018-09-12T03:45:28.189Z,5.43
2018-09-12T03:47:56.019Z,5.47
2018-09-12T03:50:23.537Z,5.40
2018-09-12T03:52:51.748Z,6.20
2018-09-12T03:55:19.244Z,5.07
2018-09-12T03:57:46.830Z,5.30
2018-09-12T04:00:15.024Z,5.53
2018-09-12T04:02:43.950Z,4.73
2018-09-12T04:05:11.756Z,5.13
2018-09-12T04:07:39.276Z,5.03
2018-09-12T04:10:06.956Z,4.93
2018-09-12T04:12:34.782Z,5.20
2018-09-12T04:15:02.310Z,5.00
2018-09-12T04:17:32.740Z,5.23
2018-09-12T04:20:01.030Z,5.07
2018-09-12T04:22:28.564Z,4.93
2018-09-12T04:24:56.096Z,5.53
2018-09-12T04:27:23.733Z,4.90
2018-09-12T04:29:52.123Z,4.87
2018-09-12T04:32:20.012Z,5.40
2018-09-12T04:34:47.912Z,5.30
2018-09-12T04:37:15.444Z,4.93
2018-09-12T04:39:43.318Z,5.63
2018-09-12T04:42:10.840Z,6.30
2018-09-12T04:44:38.755Z,5.40
2018-09-12T04:47:06.324Z,4.90
2018-09-12T04:49:33.905Z,5.20
2018-09-12T04:52:01.481Z,5.83
2018-09-12T04:54:29.001Z,5.40
2018-09-12T04:56:56.609Z,5.47
2018-09-12T04:59:24.154Z,5.97
2018-09-12T05:01:52.405Z,6.50
2018-09-12T05:04:20.259Z,5.87
2018-09-12T05:06:47.794Z,5.43
2018-09-12T05:09:15.310Z,5.73
2018-09-12T05:11:43.190Z,4.60
2018-09-12T05:14:10.808Z,5.07
2018-09-12T05:16:38.872Z,5.63
2018-09-12T05:19:06.358Z,5.47
2018-09-12T05:21:33.896Z,5.10
2018-09-12T05:24:01.443Z,4.73
2018-09-12T05:26:29.405Z,5.63
2018-09-12T05:28:56.900Z,4.83
2018-09-12T05:31:25.050Z,5.03
2018-09-12T05:33:53.240Z,5.03
2018-09-12T05:36:21.147Z,5.60
2018-09-12T05:38:49.040Z,6.13
2018-09-12T05:41:16.764Z,5.23
2018-09-12T05:43:44.293Z,5.50
2018-09-12T05:46:12.483Z,6.63
2018-09-12T05:48:40.000Z,5.37
2018-09-12T05:51:07.615Z,5.43
2018-09-12T05:53:35.123Z,5.50
2018-09-12T05:56:02.672Z,6.00
2018-09-12T05:58:30.276Z,6.30
2018-09-12T06:00:58.284Z,5.17
2018-09-12T06:03:27.217Z,5.37
2018-09-12T06:05:54.723Z,4.80
2018-09-12T06:08:22.313Z,6.00
2018-09-12T06:10:50.352Z,5.90
2018-09-12T06:13:18.333Z,5.37
2018-09-12T06:15:45.877Z,5.90
2018-09-12T06:18:14.124Z,5.20
2018-09-12T06:20:42.083Z,5.17
2018-09-12T06:23:10.150Z,5.67
2018-09-12T06:25:37.752Z,5.73
2018-09-12T06:28:05.618Z,5.00
2018-09-12T06:30:34.144Z,5.97
2018-09-12T06:33:01.795Z,5.27
2018-09-12T06:35:30.100Z,5.40
2018-09-12T06:37:58.157Z,5.40
2018-09-12T06:40:25.692Z,5.10
2018-09-12T06:42:53.240Z,5.63
2018-09-12T06:45:21.468Z,5.30
2018-09-12T06:47:48.988Z,5.27
2018-09-12T06:50:16.595Z,4.97
2018-09-12T06:52:44.659Z,4.77
2018-09-12T06:55:12.160Z,4.93
2018-09-12T06:57:40.372Z,4.77
2018-09-12T07:00:08.652Z,5.60
2018-09-12T07:02:36.156Z,5.70
2018-09-12T07:05:05.076Z,4.30
2018-09-12T07:07:32.654Z,4.73
2018-09-12T07:10:00.244Z,4.50
2018-09-12T07:12:28.369Z,5.03
2018-09-12T07:14:55.891Z,4.87
2018-09-12T07:17:23.387Z,5.00
2018-09-12T07:19:50.921Z,5.30
2018-09-12T07:22:19.125Z,5.40
2018-09-12T07:24:46.696Z,5.40
2018-09-12T07:27:14.192Z,5.33
2018-09-12T07:29:41.724Z,5.10
2018-09-12T07:32:09.752Z,4.97
2018-09-12T07:34:38.131Z,4.93
2018-09-12T07:37:05.706Z,5.50
2018-09-12T07:39:33.307Z,4.60
2018-09-12T07:42:01.510Z,4.83
2018-09-12T07:44:29.040Z,4.70
2018-09-12T07:46:56.944Z,5.00
2018-09-12T07:49:24.479Z,5.13
2018-09-12T07:51:51.988Z,4.70
2018-09-12T07:54:20.341Z,4.80
2018-09-12T07:56:47.892Z,4.90
2018-09-12T07:59:15.430Z,4.20
2018-09-12T08:01:43.545Z,4.27
2018-09-12T08:04:11.451Z,3.80
2018-09-12T08:06:39.044Z,4.33
2018-09-12T08:09:08.948Z,4.57
2018-09-12T08:11:36.995Z,4.50
2018-09-12T08:14:04.537Z,3.97
2018-09-12T08:16:32.584Z,5.40
2018-09-12T08:19:00.943Z,4.60
2018-09-12T08:21:28.490Z,4.83
2018-09-12T08:23:56.013Z,4.63
2018-09-12T08:26:23.537Z,4.90
2018-09-12T08:28:51.082Z,4.57
2018-09-12T08:31:18.929Z,4.90
2018-09-12T08:33:47.092Z,4.30
2018-09-12T08:36:15.341Z,4.20
2018-09-12T08:38:42.875Z,4.60
2018-09-12T08:41:10.425Z,4.10
2018-09-12T08:43:38.956Z,4.33
2018-09-12T08:46:06.929Z,4.10
2018-09-12T08:48:34.540Z,3.83
2018-09-12T08:51:02.065Z,5.40
2018-09-12T08:53:29.887Z,5.50
2018-09-12T08:55:57.484Z,4.30
2018-09-12T08:58:25.555Z,3.90
2018-09-12T09:00:53.100Z,4.17
2018-09-12T09:03:20.947Z,4.20
2018-09-12T09:05:49.179Z,4.07
2018-09-12T09:08:16.689Z,3.10
2018-09-12T09:10:44.778Z,3.63
2018-09-12T09:13:12.336Z,3.40
2018-09-12T09:15:40.320Z,3.00
2018-09-12T09:18:08.396Z,3.30
2018-09-12T09:20:35.905Z,4.40
2018-09-12T09:23:04.067Z,4.13
2018-09-12T09:25:31.577Z,4.83
2018-09-12T09:27:59.777Z,4.67
2018-09-12T09:30:28.679Z,4.50
2018-09-12T09:32:56.205Z,3.80
2018-09-12T09:35:24.121Z,3.80
2018-09-12T09:37:51.617Z,3.73
2018-09-12T09:40:19.844Z,3.80
2018-09-12T09:42:47.387Z,3.90
2018-09-12T09:45:16.102Z,3.17
2018-09-12T09:47:43.678Z,4.10
2018-09-12T09:50:11.593Z,3.50
2018-09-12T09:52:39.076Z,3.90
2018-09-12T09:55:06.769Z,4.07
2018-09-12T09:57:35.396Z,3.07
2018-09-12T10:00:03.579Z,4.30
2018-09-12T10:02:38.616Z,3.90
2018-09-12T10:05:12.380Z,3.50
2018-09-12T10:07:45.632Z,3.80
2018-09-12T10:10:13.172Z,3.50
2018-09-12T10:12:41.112Z,4.23
2018-09-12T10:15:09.184Z,3.83
2018-09-12T10:17:36.699Z,4.40
2018-09-12T10:20:04.312Z,4.27
2018-09-12T10:22:31.882Z,4.10
2018-09-12T10:24:59.701Z,3.97
2018-09-12T10:27:27.778Z,3.60
2018-09-12T10:29:55.288Z,3.47
2018-09-12T10:32:23.371Z,3.73
2018-09-12T10:34:51.304Z,5.03
2018-09-12T10:37:18.984Z,4.93
2018-09-12T10:39:46.952Z,4.50
2018-09-12T10:42:14.463Z,4.90
2018-09-12T10:44:42.451Z,4.67
2018-09-12T10:47:10.301Z,4.53
2018-09-12T10:49:37.891Z,4.07
2018-09-12T10:52:05.455Z,4.20
2018-09-12T10:54:34.363Z,4.70
2018-09-12T10:57:02.329Z,4.37
2018-09-12T10:59:29.923Z,4.70
2018-09-12T11:01:57.464Z,4.67
2018-09-12T11:04:25.678Z,4.77
2018-09-12T11:06:53.213Z,4.90
2018-09-12T11:09:20.773Z,5.20
2018-09-12T11:11:49.440Z,4.60
2018-09-12T11:14:17.079Z,5.50
2018-09-12T11:16:45.219Z,4.67
2018-09-12T11:19:13.200Z,5.03
2018-09-12T11:21:40.779Z,5.37
2018-09-12T11:24:08.708Z,5.20
2018-09-12T11:26:36.264Z,5.00
2018-09-12T11:29:03.832Z,5.07
2018-09-12T11:31:31.762Z,4.80
2018-09-12T11:33:59.312Z,4.60
2018-09-12T11:36:27.202Z,4.93
2018-09-12T11:38:54.848Z,4.50
2018-09-12T11:41:22.401Z,5.03
2018-09-12T11:43:50.288Z,4.93
2018-09-12T11:46:18.179Z,5.00
2018-09-12T11:48:46.922Z,5.00
2018-09-12T11:51:14.455Z,5.00
2018-09-12T11:53:42.522Z,4.90
2018-09-12T11:56:10.041Z,5.10
2018-09-12T11:58:37.578Z,4.70
2018-09-12T12:01:05.187Z,4.10
2018-09-12T12:03:33.236Z,4.97
2018-09-12T12:06:00.824Z,4.07
2018-09-12T12:08:28.736Z,4.10
2018-09-12T12:10:57.395Z,3.90
2018-09-12T12:13:24.914Z,3.83
2018-09-12T12:15:52.452Z,4.17
2018-09-12T12:18:20.017Z,4.53
2018-09-12T12:20:48.314Z,4.07
2018-09-12T12:23:15.866Z,4.10
2018-09-12T12:25:43.398Z,5.00
2018-09-12T12:28:10.932Z,4.60
2018-09-12T12:30:39.144Z,5.40
2018-09-12T12:33:06.677Z,6.00
2018-09-12T12:35:35.150Z,5.30
2018-09-12T12:38:02.667Z,5.40
2018-09-12T12:40:30.195Z,5.10
2018-09-12T12:42:58.329Z,5.50
2018-09-12T12:45:26.188Z,5.37
2018-09-12T12:47:53.697Z,5.27
2018-09-12T12:50:21.424Z,4.93
2018-09-12T12:52:49.008Z,5.27
2018-09-12T12:55:16.552Z,4.40
2018-09-12T12:57:44.155Z,4.97
2018-09-12T13:00:11.726Z,4.30
2018-09-12T13:02:40.240Z,4.67
2018-09-12T13:05:07.948Z,4.93
2018-09-12T13:07:35.888Z,5.00
2018-09-12T13:10:04.073Z,5.13
2018-09-12T13:12:33.163Z,4.83
2018-09-12T13:15:00.700Z,4.80
2018-09-12T13:17:28.360Z,4.17
2018-09-12T13:19:56.507Z,4.93
2018-09-12T13:22:24.048Z,4.10
2018-09-12T13:24:51.593Z,4.50
2018-09-12T13:27:19.187Z,4.40
2018-09-12T13:29:46.881Z,4.60
2018-09-12T13:32:14.955Z,4.47
2018-09-12T13:34:42.887Z,4.07
2018-09-12T13:37:10.395Z,4.53
2018-09-12T13:39:38.058Z,5.10
2018-09-12T13:42:06.201Z,4.50
2018-09-12T13:44:33.924Z,4.80
2018-09-12T13:47:02.685Z,4.80
2018-09-12T13:49:30.867Z,5.03
2018-09-12T13:51:58.416Z,4.77
2018-09-12T13:54:25.945Z,4.93
2018-09-12T13:56:53.477Z,3.80
2018-09-12T13:59:21.003Z,4.37
2018-09-12T14:01:49.157Z,5.00
2018-09-12T14:04:17.051Z,4.67
2018-09-12T14:06:44.579Z,5.17
2018-09-12T14:09:12.197Z,4.77
2018-09-12T14:11:40.451Z,4.97
2018-09-12T14:14:08.352Z,4.37
2018-09-12T14:16:36.187Z,5.10
2018-09-12T14:19:03.832Z,4.27
2018-09-12T14:21:31.890Z,4.70
2018-09-12T14:23:59.548Z,4.37
2018-09-12T14:26:27.491Z,4.33
2018-09-12T14:28:55.016Z,4.13
2018-09-12T14:31:23.872Z,4.07
2018-09-12T14:33:51.432Z,3.80
2018-09-12T14:36:19.536Z,4.33
2018-09-12T14:38:47.872Z,4.10
2018-09-12T14:41:15.416Z,4.20
2018-09-12T14:43:43.603Z,3.90
2018-09-12T14:46:11.856Z,4.33
2018-09-12T14:48:39.459Z,4.30
2018-09-12T14:51:07.090Z,4.00
2018-09-12T14:53:34.695Z,3.80
2018-09-12T14:56:02.211Z,4.67
2018-09-12T14:58:30.128Z,4.43
2018-09-12T15:00:57.640Z,3.97
2018-09-12T15:03:26.229Z,3.67
2018-09-12T15:05:53.785Z,4.03
2018-09-12T15:08:21.272Z,4.00
2018-09-12T15:10:49.114Z,4.00
2018-09-12T15:13:17.215Z,3.87
2018-09-12T15:15:44.750Z,4.13
2018-09-12T15:18:12.261Z,3.97
2018-09-12T15:20:39.812Z,3.30
2018-09-12T15:23:07.420Z,3.20
2018-09-12T15:25:35.011Z,3.77
2018-09-12T15:28:02.589Z,3.70
2018-09-12T15:30:30.426Z,3.40
2018-09-12T15:32:57.944Z,3.50
2018-09-12T15:35:26.062Z,3.67
2018-09-12T15:37:53.603Z,3.63
2018-09-12T15:40:21.466Z,3.90
2018-09-12T15:42:49.611Z,3.83
2018-09-12T15:45:18.105Z,4.13
2018-09-12T15:47:45.760Z,4.10
2018-09-12T15:50:13.291Z,4.20
2018-09-12T15:52:40.883Z,4.00
2018-09-12T15:55:08.987Z,4.10
2018-09-12T15:57:36.520Z,3.77
2018-09-12T16:00:04.746Z,4.37
2018-09-12T16:02:32.244Z,4.70
2018-09-12T16:05:00.085Z,4.03
2018-09-12T16:07:27.601Z,3.57
2018-09-12T16:09:55.813Z,4.70
2018-09-12T16:12:23.767Z,5.50
2018-09-12T16:14:51.284Z,4.20
2018-09-12T16:17:18.815Z,3.53
2018-09-12T16:19:46.511Z,3.53
2018-09-12T16:22:14.052Z,3.20
2018-09-12T16:24:41.713Z,3.03
2018-09-12T16:27:09.418Z,3.80
2018-09-12T16:29:36.935Z,3.40
2018-09-12T16:32:05.211Z,4.00
2018-09-12T16:34:33.291Z,4.07
2018-09-12T16:38:30.411Z,4.07
2018-09-12T16:40:58.228Z,4.07
2018-09-12T16:43:26.056Z,3.40
2018-09-12T16:45:54.220Z,3.63
2018-09-12T16:48:21.747Z,4.90
2018-09-12T16:50:49.315Z,3.60
2018-09-12T16:53:17.699Z,3.20
2018-09-12T16:55:45.247Z,3.63
2018-09-12T16:58:13.155Z,3.50
2018-09-12T17:00:40.675Z,4.50
2018-09-12T17:03:08.907Z,4.20
2018-09-12T17:05:36.449Z,4.37
2018-09-12T17:08:04.100Z,4.70
2018-09-12T17:10:32.104Z,4.23
2018-09-12T17:13:00.183Z,4.57
2018-09-12T17:15:27.721Z,4.53
2018-09-12T17:17:55.242Z,5.03
2018-09-12T17:20:22.775Z,4.80
2018-09-12T17:22:50.336Z,4.30
2018-09-12T17:25:17.935Z,3.70
2018-09-12T17:27:45.611Z,4.27
2018-09-12T17:30:13.112Z,4.83
2018-09-12T17:32:41.157Z,3.80
2018-09-12T17:35:09.515Z,5.50
2018-09-12T17:37:37.193Z,4.40
2018-09-12T17:40:05.275Z,4.33
2018-09-12T17:42:32.794Z,4.47
2018-09-12T17:46:30.120Z,3.80
2018-09-12T17:48:58.128Z,4.77
2018-09-12T17:51:25.712Z,6.00
2018-09-12T17:53:55.104Z,6.70
2018-09-12T17:56:23.373Z,7.70
2018-09-12T17:58:51.883Z,8.10
2018-09-12T18:01:19.904Z,7.00
2018-09-12T18:03:47.816Z,6.63
2018-09-12T18:06:15.568Z,9.20
2018-09-12T18:08:43.091Z,9.40
2018-09-12T18:11:11.113Z,8.83
2018-09-12T18:13:38.640Z,7.80
2018-09-12T18:16:06.184Z,6.77
2018-09-12T18:18:33.708Z,8.57
2018-09-12T18:21:01.248Z,6.30
2018-09-12T18:23:28.872Z,6.40
2018-09-12T18:25:57.016Z,7.40
2018-09-12T18:28:24.899Z,6.10
2018-09-12T18:30:52.850Z,5.43
2018-09-12T18:33:20.358Z,6.10
2018-09-12T18:35:48.409Z,6.93
2018-09-12T18:38:16.475Z,5.80
2018-09-12T18:40:44.116Z,4.83
2018-09-12T18:43:11.759Z,5.33
2018-09-12T18:45:39.552Z,5.10
2018-09-12T18:48:07.080Z,4.60
2018-09-12T18:50:34.670Z,4.37
2018-09-12T18:53:02.733Z,5.10
2018-09-12T18:55:30.256Z,4.80
2018-09-12T18:57:58.200Z,4.60
2018-09-12T19:00:25.801Z,4.70
2018-09-12T19:02:53.940Z,4.80
2018-09-12T19:05:22.864Z,4.60
2018-09-12T19:07:50.843Z,5.63
2018-09-12T19:10:18.608Z,6.20
2018-09-12T19:12:46.672Z,6.20
2018-09-12T19:15:14.285Z,4.93
2018-09-12T19:17:42.436Z,4.87
2018-09-12T19:20:09.974Z,6.03
2018-09-12T19:22:37.690Z,5.30
2018-09-12T19:25:05.322Z,4.20
2018-09-12T19:27:33.880Z,4.03
2018-09-12T19:30:01.441Z,6.63
2018-09-12T19:32:29.699Z,6.93
2018-09-12T19:34:57.600Z,4.83
2018-09-12T19:37:25.160Z,4.70
2018-09-12T19:39:52.845Z,4.87
2018-09-12T19:42:20.717Z,5.10
2018-09-12T19:44:49.403Z,4.77
2018-09-12T19:47:17.270Z,4.47
2018-09-12T19:49:45.805Z,5.47
2018-09-12T19:52:13.984Z,4.70
2018-09-12T19:54:41.598Z,6.23
2018-09-12T19:57:09.131Z,6.00
2018-09-12T19:59:37.005Z,6.90
2018-09-12T20:02:05.090Z,5.87
2018-09-12T20:04:33.171Z,5.37
2018-09-12T20:07:01.528Z,5.50
2018-09-12T20:09:29.088Z,5.77
2018-09-12T20:11:57.066Z,4.90
2018-09-12T20:14:24.930Z,5.97
2018-09-12T20:16:53.080Z,4.53
2018-09-12T20:19:20.788Z,5.10
2018-09-12T20:21:48.353Z,5.23
2018-09-12T20:24:16.761Z,5.07
2018-09-12T20:26:44.390Z,4.80
2018-09-12T20:29:12.419Z,5.50
2018-09-12T20:31:42.052Z,6.30
2018-09-12T20:34:10.209Z,6.60
2018-09-12T20:36:37.738Z,6.10
2018-09-12T20:39:08.312Z,6.67
2018-09-12T20:41:36.659Z,6.00
2018-09-12T20:44:04.783Z,4.57
2018-09-12T20:46:32.827Z,5.87
2018-09-12T20:49:00.756Z,4.67
2018-09-12T20:51:28.661Z,5.70
2018-09-12T20:53:56.251Z,5.60
2018-09-12T20:56:23.800Z,6.40
2018-09-12T20:58:51.861Z,4.60
2018-09-12T21:01:19.872Z,5.23
2018-09-12T21:03:47.948Z,6.60
2018-09-12T21:06:15.984Z,5.97
2018-09-12T21:08:43.551Z,6.77
2018-09-12T21:11:11.432Z,5.50
2018-09-12T21:13:39.120Z,5.47
2018-09-12T21:16:06.655Z,5.83
2018-09-12T21:18:34.357Z,6.33
2018-09-12T21:21:02.380Z,6.90
2018-09-12T21:23:30.076Z,6.97
2018-09-12T21:25:57.944Z,6.10
2018-09-12T21:28:25.491Z,5.70
2018-09-12T21:30:54.048Z,4.77
2018-09-12T21:33:21.608Z,5.57
2018-09-12T21:35:49.600Z,5.10
2018-09-12T21:38:18.233Z,5.10
2018-09-12T21:40:46.479Z,4.83
2018-09-12T21:43:15.512Z,4.70
2018-09-12T21:45:43.879Z,4.50
2018-09-12T21:48:11.782Z,5.13
2018-09-12T21:50:39.443Z,5.67
2018-09-12T21:53:06.949Z,4.63
2018-09-12T21:55:35.160Z,4.63
2018-09-12T21:58:03.075Z,5.60
2018-09-12T22:00:30.683Z,6.00
2018-09-12T22:02:58.607Z,5.30
2018-09-12T22:05:26.136Z,5.67
2018-09-12T22:07:53.707Z,4.97
2018-09-12T22:10:21.204Z,5.20
2018-09-12T22:12:49.279Z,6.27
2018-09-12T22:15:16.839Z,5.20
2018-09-12T22:17:44.363Z,6.13
2018-09-12T22:20:13.064Z,6.17
2018-09-12T22:22:40.587Z,5.57
2018-09-12T22:25:08.108Z,5.37
2018-09-12T22:27:35.992Z,5.10
2018-09-12T22:30:04.291Z,6.40
2018-09-12T22:32:32.996Z,5.10
2018-09-12T22:35:01.624Z,5.07
2018-09-12T22:37:29.626Z,4.37
2018-09-12T22:39:57.140Z,4.93
2018-09-12T22:42:25.559Z,5.07
2018-09-12T22:44:53.498Z,6.50
2018-09-12T22:47:21.387Z,5.37
2018-09-12T22:49:48.971Z,5.00
2018-09-12T22:52:17.047Z,5.20
2018-09-12T22:54:45.839Z,5.17
2018-09-12T22:57:13.371Z,4.43
2018-09-12T22:59:40.912Z,4.30
2018-09-12T23:02:09.111Z,4.87
2018-09-12T23:04:37.051Z,6.03
2018-09-12T23:07:05.571Z,6.63
2018-09-12T23:09:33.099Z,5.97
2018-09-12T23:12:01.211Z,6.67
2018-09-12T23:14:28.819Z,5.93
2018-09-12T23:16:57.853Z,5.40
2018-09-12T23:19:25.359Z,6.03
2018-09-12T23:21:52.859Z,4.77
2018-09-12T23:24:20.403Z,4.60
2018-09-12T23:26:48.463Z,5.27
2018-09-12T23:29:15.952Z,6.10
2018-09-12T23:31:44.132Z,5.60
2018-09-12T23:34:11.955Z,5.73
2018-09-12T23:36:39.472Z,5.80
2018-09-12T23:39:09.469Z,5.03
2018-09-12T23:41:37.699Z,5.20
2018-09-12T23:44:05.395Z,4.80
2018-09-12T23:46:33.667Z,4.97
2018-09-12T23:49:01.792Z,4.47
2018-09-12T23:51:29.311Z,5.57
2018-09-12T23:53:57.272Z,4.80
2018-09-12T23:56:24.760Z,4.37
2018-09-12T23:58:52.765Z,4.93
